createdAt,value
2023-01-04T00:01:15.735Z,12.23
2023-01-04T00:03:42.885Z,14.20
2023-01-04T00:06:12.663Z,13.18
2023-01-04T00:11:08.846Z,12.63
2023-01-04T00:13:35.867Z,12.30
2023-01-04T00:16:13.054Z,12.20
2023-01-04T00:18:40.758Z,13.05
2023-01-04T00:21:19.831Z,14.27
2023-01-04T00:23:49.521Z,12.07
2023-01-04T00:26:22.179Z,11.07
2023-01-04T00:28:54.545Z,10.40
2023-01-04T00:31:23.199Z,10.93
2023-01-04T00:33:51.048Z,10.80
2023-01-04T00:36:17.971Z,11.13
2023-01-04T00:38:45.197Z,10.88
2023-01-04T00:41:28.271Z,10.73
2023-01-04T00:44:03.459Z,10.95
2023-01-04T00:46:32.025Z,9.55
2023-01-04T00:49:00.808Z,9.55
2023-01-04T00:51:29.797Z,9.00
2023-01-04T00:53:57.635Z,10.07
2023-01-04T00:56:24.713Z,8.10
2023-01-04T00:58:55.978Z,8.57
2023-01-04T01:01:23.917Z,8.80
2023-01-04T01:03:55.878Z,7.57
2023-01-04T01:06:24.957Z,8.15
2023-01-04T01:08:53.115Z,7.33
2023-01-04T01:11:21.189Z,7.00
2023-01-04T01:13:48.609Z,8.40
2023-01-04T01:16:27.290Z,7.85
2023-01-04T01:19:05.065Z,7.60
2023-01-04T01:21:32.898Z,8.13
2023-01-04T01:23:59.932Z,7.22
2023-01-04T01:26:27.606Z,7.55
2023-01-04T01:28:54.522Z,7.70
2023-01-04T01:31:27.718Z,7.97
2023-01-04T01:33:56.302Z,7.95
2023-01-04T01:36:26.278Z,8.23
2023-01-04T01:38:54.046Z,8.50
2023-01-04T01:41:23.838Z,7.53
2023-01-04T01:44:06.982Z,7.28
2023-01-04T01:46:50.497Z,7.68
2023-01-04T01:49:34.503Z,7.93
2023-01-04T01:52:08.016Z,7.13
2023-01-04T01:54:41.467Z,7.45
2023-01-04T01:57:11.807Z,7.82
2023-01-04T01:59:43.146Z,7.70
2023-01-04T02:02:11.872Z,7.57
2023-01-04T02:04:43.509Z,8.35
2023-01-04T02:07:12.625Z,7.28
2023-01-04T02:09:39.891Z,7.18
2023-01-04T02:12:11.692Z,8.40
2023-01-04T02:14:39.755Z,7.50
2023-01-04T02:20:34.555Z,7.10
2023-01-04T02:23:19.723Z,6.75
2023-01-04T02:26:05.124Z,7.30
2023-01-04T02:28:54.004Z,7.28
2023-01-04T02:31:39.907Z,6.80
2023-01-04T02:34:38.413Z,7.10
2023-01-04T02:37:28.494Z,6.90
2023-01-04T02:40:19.922Z,7.72
2023-01-04T02:43:37.858Z,7.38
2023-01-04T02:46:12.349Z,7.22
2023-01-04T02:48:59.341Z,7.20
2023-01-04T02:51:30.744Z,8.10
2023-01-04T02:54:01.857Z,7.47
2023-01-04T02:57:02.648Z,7.95
2023-01-04T02:59:40.798Z,6.57
2023-01-04T03:02:48.225Z,7.03
2023-01-04T03:05:51.676Z,7.13
2023-01-04T03:08:24.742Z,6.90
2023-01-04T03:11:27.451Z,7.57
2023-01-04T03:25:59.619Z,6.70
2023-01-04T03:28:49.535Z,7.07
2023-01-04T03:34:40.870Z,6.00
2023-01-04T03:37:22.957Z,6.28
2023-01-04T03:40:30.486Z,6.28
2023-01-04T03:43:28.849Z,6.20
2023-01-04T03:46:26.113Z,6.15
2023-01-04T03:49:16.211Z,5.45
2023-01-04T03:51:45.513Z,6.07
2023-01-04T03:54:21.031Z,6.30
2023-01-04T03:56:49.981Z,6.43
2023-01-04T03:59:17.406Z,5.53
2023-01-04T04:07:43.673Z,8.07
2023-01-04T04:10:11.013Z,7.00
2023-01-04T04:12:37.813Z,7.22
2023-01-04T04:15:05.255Z,7.45
2023-01-04T04:17:32.062Z,7.22
2023-01-04T04:25:23.680Z,7.43
2023-01-04T04:27:50.555Z,8.75
2023-01-04T04:30:17.509Z,8.75
2023-01-04T04:32:44.369Z,8.80
2023-01-04T04:35:11.929Z,8.73
2023-01-04T04:37:38.837Z,8.60
2023-01-04T04:40:06.584Z,8.63
2023-01-04T04:50:47.062Z,9.15
2023-01-04T04:53:14.028Z,7.13
2023-01-04T04:58:23.681Z,7.88
2023-01-04T05:00:52.065Z,7.78
2023-01-04T05:06:02.793Z,7.88
2023-01-04T05:16:37.197Z,8.20
2023-01-04T05:19:04.129Z,8.60
2023-01-04T05:24:17.546Z,8.32
2023-01-04T05:32:24.861Z,8.95
2023-01-04T05:34:51.686Z,9.27
2023-01-04T05:37:18.540Z,8.77
2023-01-04T05:39:45.400Z,8.38
2023-01-04T05:42:28.029Z,9.13
2023-01-04T05:44:57.113Z,9.52
2023-01-04T05:47:24.805Z,8.30
2023-01-04T05:49:53.033Z,8.07
2023-01-04T05:57:45.664Z,7.97
2023-01-04T06:00:13.850Z,7.80
2023-01-04T06:02:41.522Z,8.65
2023-01-04T06:07:51.875Z,8.10
2023-01-04T06:10:19.567Z,8.95
2023-01-04T06:15:28.432Z,7.55
2023-01-04T06:17:59.221Z,8.38
2023-01-04T06:20:26.855Z,7.53
2023-01-04T06:22:53.971Z,8.02
2023-01-04T06:25:20.794Z,8.50
2023-01-04T06:30:29.199Z,8.35
2023-01-04T06:32:56.078Z,9.13
2023-01-04T06:35:23.964Z,8.85
2023-01-04T06:37:50.861Z,7.85
2023-01-04T06:40:17.831Z,8.48
2023-01-04T06:42:46.003Z,9.20
2023-01-04T06:50:38.505Z,9.52
2023-01-04T06:53:05.652Z,9.02
2023-01-04T06:55:32.823Z,10.05
2023-01-04T06:57:59.963Z,9.93
2023-01-04T07:00:28.998Z,8.77
2023-01-04T07:03:12.803Z,9.67
2023-01-04T07:05:45.105Z,10.38
2023-01-04T07:08:15.824Z,9.98
2023-01-04T07:10:42.853Z,10.50
2023-01-04T07:13:10.160Z,10.60
2023-01-04T07:15:41.007Z,12.13
2023-01-04T07:18:09.713Z,11.02
2023-01-04T07:20:38.034Z,10.88
2023-01-04T07:23:06.635Z,11.23
2023-01-04T07:25:33.569Z,11.52
2023-01-04T07:28:00.575Z,11.38
2023-01-04T07:30:31.118Z,12.27
2023-01-04T07:32:59.619Z,13.02
2023-01-04T07:35:32.728Z,12.27
2023-01-04T07:37:59.784Z,11.18
2023-01-04T07:40:27.490Z,11.70
2023-01-04T07:42:58.948Z,11.07
2023-01-04T07:45:26.263Z,12.35
2023-01-04T07:47:57.950Z,11.93
2023-01-04T07:50:24.868Z,11.25
2023-01-04T07:52:51.872Z,11.50
2023-01-04T07:55:26.530Z,11.73
2023-01-04T07:58:03.909Z,11.93
2023-01-04T08:00:40.306Z,12.65
2023-01-04T08:03:30.939Z,12.02
2023-01-04T08:05:59.299Z,11.10
2023-01-04T08:08:26.208Z,12.27
2023-01-04T08:10:53.232Z,10.73
2023-01-04T08:13:20.120Z,11.50
2023-01-04T08:15:53.522Z,12.70
2023-01-04T08:18:20.893Z,10.90
2023-01-04T08:20:51.030Z,12.43
2023-01-04T08:23:20.438Z,12.80
2023-01-04T08:25:47.435Z,12.55
2023-01-04T08:28:16.969Z,11.95
2023-01-04T08:30:48.787Z,11.68
2023-01-04T08:33:42.059Z,12.35
2023-01-04T08:36:26.677Z,12.48
2023-01-04T08:39:01.008Z,14.57
2023-01-04T08:44:23.967Z,12.95
2023-01-04T08:46:53.004Z,13.60
2023-01-04T08:49:21.577Z,13.65
2023-01-04T08:51:49.430Z,12.27
2023-01-04T08:54:16.403Z,12.43
2023-01-04T08:56:43.667Z,12.13
2023-01-04T08:59:12.810Z,12.13
2023-01-04T09:01:41.140Z,13.35
2023-01-04T09:04:08.667Z,13.07
2023-01-04T09:06:37.344Z,14.18
2023-01-04T09:09:04.603Z,11.60
2023-01-04T09:11:31.468Z,11.32
2023-01-04T09:17:15.835Z,12.23
2023-01-04T09:19:42.798Z,10.15
2023-01-04T09:22:09.753Z,9.93
2023-01-04T09:24:36.665Z,10.98
2023-01-04T09:27:04.697Z,11.30
2023-01-04T09:29:31.695Z,10.85
2023-01-04T09:31:58.589Z,12.95
2023-01-04T09:34:25.899Z,10.18
2023-01-04T09:36:52.957Z,10.63
2023-01-04T09:39:23.403Z,10.02
2023-01-04T09:42:04.896Z,12.77
2023-01-04T09:45:21.947Z,10.60
2023-01-04T09:47:35.993Z,11.38
2023-01-04T09:50:18.932Z,11.23
2023-01-04T09:53:16.531Z,10.95
2023-01-04T09:55:48.150Z,13.07
2023-01-04T09:58:48.170Z,12.93
2023-01-04T10:01:20.668Z,10.60
2023-01-04T10:03:56.617Z,10.43
2023-01-04T10:06:23.493Z,10.25
2023-01-04T10:08:50.407Z,11.18
2023-01-04T10:11:42.620Z,12.48
2023-01-04T10:14:27.634Z,11.50
2023-01-04T10:18:13.505Z,10.88
2023-01-04T10:23:58.683Z,10.95
2023-01-04T10:26:38.119Z,11.85
2023-01-04T10:29:33.296Z,10.10
2023-01-04T10:32:26.521Z,10.32
2023-01-04T10:34:53.612Z,10.73
2023-01-04T10:37:34.907Z,10.63
2023-01-04T10:40:02.362Z,10.10
2023-01-04T10:42:33.971Z,10.55
2023-01-04T10:45:31.209Z,10.60
2023-01-04T10:48:10.261Z,11.93
2023-01-04T10:50:45.262Z,11.00
2023-01-04T10:53:15.157Z,10.85
2023-01-04T10:56:23.736Z,12.40
2023-01-04T10:58:55.820Z,10.57
2023-01-04T11:01:33.888Z,12.45
2023-01-04T11:04:16.479Z,11.15
2023-01-04T11:06:57.862Z,11.43
2023-01-04T11:09:33.808Z,10.57
2023-01-04T11:12:02.245Z,11.88
2023-01-04T11:14:36.795Z,9.48
2023-01-04T11:17:05.903Z,10.10
2023-01-04T11:19:34.056Z,10.40
2023-01-04T11:22:18.058Z,11.02
2023-01-04T11:25:24.638Z,10.85
2023-01-04T11:28:01.560Z,9.82
2023-01-04T11:31:05.771Z,10.43
2023-01-04T11:33:51.627Z,10.45
2023-01-04T11:36:44.041Z,11.48
2023-01-04T11:39:25.813Z,12.07
2023-01-04T11:42:04.545Z,12.07
2023-01-04T11:44:33.199Z,12.18
2023-01-04T11:47:16.675Z,12.43
2023-01-04T11:49:43.709Z,11.98
2023-01-04T11:52:33.293Z,11.23
2023-01-04T11:55:27.119Z,10.85
2023-01-04T11:58:15.215Z,11.30
2023-01-04T12:00:55.111Z,10.80
2023-01-04T12:03:29.423Z,10.48
2023-01-04T12:05:57.541Z,10.10
2023-01-04T12:08:35.876Z,9.60
2023-01-04T12:11:05.428Z,9.85
2023-01-04T12:13:33.674Z,9.27
2023-01-04T12:16:38.948Z,10.30
2023-01-04T12:19:06.125Z,10.10
2023-01-04T12:21:35.004Z,10.18
2023-01-04T12:24:06.294Z,10.37
2023-01-04T12:26:33.540Z,9.00
2023-01-04T12:29:22.436Z,9.77
2023-01-04T12:31:49.836Z,9.65
2023-01-04T12:34:22.491Z,9.30
2023-01-04T12:37:05.235Z,9.77
2023-01-04T12:39:43.772Z,8.95
2023-01-04T12:42:17.625Z,10.07
2023-01-04T12:44:47.541Z,8.95
2023-01-04T12:50:12.646Z,9.00
2023-01-04T12:55:45.664Z,9.88
2023-01-04T12:58:51.183Z,9.25
2023-01-04T13:01:24.375Z,10.57
2023-01-04T13:04:04.258Z,10.82
2023-01-04T13:06:39.204Z,9.65
2023-01-04T13:09:19.709Z,8.90
2023-01-04T13:12:04.906Z,8.30
2023-01-04T13:14:44.334Z,8.32
2023-01-04T13:17:19.299Z,8.27
2023-01-04T13:19:47.325Z,7.13
2023-01-04T13:22:34.039Z,7.68
2023-01-04T13:25:04.321Z,7.97
2023-01-04T13:27:31.295Z,6.65
2023-01-04T13:29:58.254Z,9.55
2023-01-04T13:32:31.121Z,7.38
2023-01-04T13:35:03.655Z,7.93
2023-01-04T13:37:44.449Z,7.35
2023-01-04T13:40:28.012Z,8.05
2023-01-04T13:43:17.112Z,9.55
2023-01-04T13:46:06.686Z,8.23
2023-01-04T13:48:40.823Z,8.13
2023-01-04T13:51:36.314Z,10.55
2023-01-04T13:54:17.683Z,7.93
2023-01-04T13:56:48.252Z,8.25
2023-01-04T13:59:20.489Z,7.63
2023-01-04T14:01:51.783Z,7.63
2023-01-04T14:04:28.107Z,7.90
2023-01-04T14:06:59.190Z,7.70
2023-01-04T14:09:31.264Z,7.30
2023-01-04T14:12:09.112Z,6.35
2023-01-04T14:14:39.195Z,6.82
2023-01-04T14:19:55.209Z,5.72
2023-01-04T14:22:41.181Z,5.20
2023-01-04T14:25:48.596Z,5.20
2023-01-04T14:28:21.708Z,6.30
2023-01-04T14:31:01.369Z,4.63
2023-01-04T14:33:44.267Z,5.70
2023-01-04T14:36:26.839Z,5.45
2023-01-04T14:39:14.969Z,5.05
2023-01-04T14:41:53.814Z,5.05
2023-01-04T14:44:24.188Z,6.05
2023-01-04T14:46:56.471Z,5.57
2023-01-04T14:49:26.884Z,5.88
2023-01-04T14:51:59.624Z,5.07
2023-01-04T14:54:28.414Z,6.07
2023-01-04T14:56:57.408Z,6.55
2023-01-04T14:59:25.160Z,5.18
2023-01-04T15:01:56.944Z,5.13
2023-01-04T15:04:24.451Z,5.43
2023-01-04T15:06:59.458Z,6.07
2023-01-04T15:09:27.651Z,6.28
2023-01-04T15:11:54.776Z,5.72
2023-01-04T15:14:21.924Z,5.72
2023-01-04T15:16:49.107Z,5.97
2023-01-04T15:19:16.512Z,6.50
2023-01-04T15:21:43.342Z,5.90
2023-01-04T15:24:10.588Z,5.85
2023-01-04T15:26:39.198Z,5.70
2023-01-04T15:29:06.880Z,6.03
2023-01-04T15:31:38.829Z,6.07
2023-01-04T15:34:06.783Z,5.53
2023-01-04T15:36:35.126Z,5.55
2023-01-04T15:39:02.076Z,5.55
2023-01-04T15:41:47.456Z,5.60
2023-01-04T15:44:14.483Z,5.70
2023-01-04T15:46:41.346Z,6.25
2023-01-04T15:49:13.310Z,5.97
2023-01-04T15:51:43.931Z,5.47
2023-01-04T15:54:10.883Z,6.68
2023-01-04T15:56:37.932Z,6.53
2023-01-04T15:59:04.755Z,6.88
2023-01-04T16:01:34.676Z,6.10
2023-01-04T16:04:02.689Z,6.82
2023-01-04T16:06:29.605Z,7.80
2023-01-04T16:08:58.960Z,9.00
2023-01-04T16:11:26.003Z,11.25
2023-01-04T16:13:53.687Z,10.75
2023-01-04T16:16:22.952Z,9.70
2023-01-04T16:18:51.917Z,10.18
2023-01-04T16:21:25.874Z,9.97
2023-01-04T16:24:00.132Z,11.70
2023-01-04T16:26:31.015Z,12.88
2023-01-04T16:28:57.865Z,11.10
2023-01-04T16:31:25.231Z,13.07
2023-01-04T16:33:55.351Z,16.38
2023-01-04T16:36:22.401Z,23.30
2023-01-04T16:38:49.240Z,21.42
2023-01-04T16:41:19.169Z,15.23
2023-01-04T16:46:37.602Z,19.13
2023-01-04T16:49:07.105Z,22.77
2023-01-04T16:51:35.844Z,17.13
2023-01-04T16:54:05.182Z,18.00
2023-01-04T16:56:33.084Z,14.35
2023-01-04T16:59:00.840Z,17.23
2023-01-04T17:01:33.029Z,19.13
2023-01-04T17:04:02.581Z,15.90
2023-01-04T17:06:31.632Z,14.77
2023-01-04T17:08:59.952Z,17.00
2023-01-04T17:16:43.988Z,13.05
2023-01-04T17:19:11.005Z,12.00
2023-01-04T17:21:37.877Z,13.02
2023-01-04T17:24:05.018Z,13.05
2023-01-04T17:26:33.357Z,13.65
2023-01-04T17:29:01.843Z,13.73
2023-01-04T17:31:35.204Z,16.88
2023-01-04T17:34:02.642Z,16.73
2023-01-04T17:36:29.892Z,13.85
2023-01-04T17:38:59.814Z,13.00
2023-01-04T17:41:28.630Z,14.63
2023-01-04T17:44:01.027Z,12.85
2023-01-04T17:46:32.049Z,14.23
2023-01-04T17:51:50.660Z,14.32
2023-01-04T17:54:17.527Z,14.10
2023-01-04T17:56:44.482Z,20.40
2023-01-04T17:59:12.542Z,25.17
2023-01-04T18:01:39.899Z,25.70
2023-01-04T18:04:06.983Z,25.35
2023-01-04T18:06:39.109Z,26.40
2023-01-04T18:09:07.211Z,24.13
2023-01-04T18:11:35.611Z,21.17
2023-01-04T18:14:06.149Z,19.23
2023-01-04T18:16:56.109Z,21.55
2023-01-04T18:19:25.824Z,20.48
2023-01-04T18:21:52.822Z,16.90
2023-01-04T18:24:37.138Z,15.95
2023-01-04T18:27:24.274Z,25.73
2023-01-04T18:29:53.589Z,20.48
2023-01-04T18:32:21.423Z,25.65
2023-01-04T18:34:48.459Z,21.70
2023-01-04T18:37:16.115Z,18.33
2023-01-04T18:39:43.714Z,20.00
2023-01-04T18:42:10.882Z,20.90
2023-01-04T18:44:44.107Z,19.15
2023-01-04T18:47:15.918Z,21.23
2023-01-04T18:49:42.862Z,26.70
2023-01-04T18:52:09.709Z,28.77
2023-01-04T18:54:36.755Z,29.02
2023-01-04T18:57:05.217Z,27.00
2023-01-04T18:59:32.769Z,23.77
2023-01-04T19:02:01.534Z,27.55
2023-01-04T19:04:30.077Z,26.70
2023-01-04T19:06:57.137Z,26.50
2023-01-04T19:09:24.560Z,25.13
2023-01-04T19:11:51.497Z,25.95
2023-01-04T19:14:18.352Z,30.02
2023-01-04T19:16:45.452Z,33.22
2023-01-04T19:19:12.404Z,36.13
2023-01-04T19:21:39.405Z,26.08
2023-01-04T19:24:06.644Z,16.88
2023-01-04T19:26:33.595Z,16.23
2023-01-04T19:29:01.131Z,21.20
2023-01-04T19:31:28.258Z,21.63
2023-01-04T19:33:55.086Z,23.45
2023-01-04T19:36:22.075Z,29.55
2023-01-04T19:38:49.258Z,26.92
2023-01-04T19:41:21.173Z,30.45
2023-01-04T19:43:48.579Z,34.67
2023-01-04T19:46:16.207Z,35.00
2023-01-04T19:48:43.730Z,29.08
2023-01-04T19:51:16.368Z,23.33
2023-01-04T19:53:44.773Z,19.75
2023-01-04T19:56:13.793Z,22.23
2023-01-04T19:58:41.349Z,25.45
2023-01-04T20:01:16.241Z,26.40
2023-01-04T20:03:43.835Z,25.75
2023-01-04T20:06:11.907Z,29.52
2023-01-04T20:08:39.910Z,37.60
2023-01-04T20:11:07.871Z,37.63
2023-01-04T20:13:34.897Z,33.17
2023-01-04T20:16:04.834Z,35.55
2023-01-04T20:18:32.668Z,34.03
2023-01-04T20:20:59.544Z,37.97
2023-01-04T20:23:26.494Z,36.50
2023-01-04T20:25:54.674Z,36.30
2023-01-04T20:28:24.012Z,40.78
2023-01-04T20:31:02.163Z,36.97
2023-01-04T20:33:30.445Z,40.83
2023-01-04T20:35:57.544Z,41.60
2023-01-04T20:38:24.541Z,41.95
2023-01-04T20:40:51.387Z,38.25
2023-01-04T20:43:33.478Z,42.80
2023-01-04T20:46:09.283Z,38.97
2023-01-04T20:48:36.600Z,38.42
2023-01-04T20:51:09.278Z,39.15
2023-01-04T20:53:38.192Z,37.67
2023-01-04T20:56:25.507Z,41.87
2023-01-04T20:58:53.530Z,38.33
2023-01-04T21:01:21.719Z,36.53
2023-01-04T21:03:49.823Z,35.83
2023-01-04T21:06:17.980Z,36.55
2023-01-04T21:08:45.515Z,39.63
2023-01-04T21:11:13.081Z,36.78
2023-01-04T21:13:40.425Z,42.78
2023-01-04T21:16:08.354Z,44.60
2023-01-04T21:18:35.467Z,42.80
2023-01-04T21:21:12.298Z,41.35
2023-01-04T21:23:41.255Z,40.58
2023-01-04T21:26:12.102Z,44.53
2023-01-04T21:28:38.999Z,38.83
2023-01-04T21:31:11.725Z,43.45
2023-01-04T21:36:29.017Z,37.15
2023-01-04T21:38:57.583Z,32.95
2023-01-04T21:41:25.647Z,39.38
2023-01-04T21:43:54.984Z,35.22
2023-01-04T21:46:22.786Z,37.40
2023-01-04T21:48:54.764Z,37.75
2023-01-04T21:51:25.072Z,41.60
2023-01-04T21:53:52.189Z,38.60
2023-01-04T21:56:21.654Z,31.65
2023-01-04T21:58:49.132Z,32.72
2023-01-04T22:01:23.080Z,37.33
2023-01-04T22:03:50.588Z,42.75
2023-01-04T22:06:18.980Z,34.50
2023-01-04T22:08:48.963Z,34.40
2023-01-04T22:11:16.374Z,30.08
2023-01-04T22:13:43.755Z,29.85
2023-01-04T22:16:13.770Z,32.00
2023-01-04T22:18:40.911Z,26.42
2023-01-04T22:21:13.570Z,26.40
2023-01-04T22:23:40.646Z,26.90
2023-01-04T22:26:07.904Z,22.55
2023-01-04T22:28:37.162Z,22.75
2023-01-04T22:31:10.329Z,22.80
2023-01-04T22:33:39.003Z,20.75
2023-01-04T22:36:07.655Z,24.65
2023-01-04T22:38:39.030Z,22.92
2023-01-04T22:41:16.004Z,22.80
2023-01-04T22:43:44.096Z,22.63
2023-01-04T22:46:14.347Z,21.60
2023-01-04T22:48:41.618Z,23.20
2023-01-04T22:51:14.780Z,20.40
2023-01-04T22:53:41.844Z,18.40
2023-01-04T22:56:19.921Z,17.48
2023-01-04T22:58:52.845Z,16.67
2023-01-04T23:01:21.920Z,19.10
2023-01-04T23:03:49.267Z,16.17
2023-01-04T23:06:16.250Z,17.85
2023-01-04T23:08:43.321Z,16.45
2023-01-04T23:11:18.947Z,15.60
2023-01-04T23:13:45.827Z,16.80
2023-01-04T23:16:16.011Z,17.70
2023-01-04T23:18:43.287Z,15.38
2023-01-04T23:21:10.762Z,16.05
2023-01-04T23:23:38.645Z,16.30
2023-01-04T23:26:12.964Z,14.40
2023-01-04T23:28:40.401Z,14.30
2023-01-04T23:31:09.775Z,15.38
2023-01-04T23:33:46.951Z,14.55
2023-01-04T23:36:19.812Z,15.63
2023-01-04T23:39:05.765Z,13.75
2023-01-04T23:41:45.675Z,13.02
2023-01-04T23:44:14.506Z,12.07
2023-01-04T23:46:42.173Z,14.02
2023-01-04T23:49:17.685Z,13.82
2023-01-04T23:51:44.713Z,13.93
2023-01-04T23:54:11.750Z,13.27
2023-01-04T23:56:39.562Z,15.05
2023-01-04T23:59:07.006Z,15.25
